sensor_id;sensor_type;location;lat;lon;timestamp;temperature;humidity
2300;DHT22;1158;48.750;9.078;2022-09-09T00:02:24;11.20;99.90
2300;DHT22;1158;48.750;9.078;2022-09-09T00:04:59;11.20;99.90
2300;DHT22;1158;48.750;9.078;2022-09-09T00:07:35;11.10;99.90
2300;DHT22;1158;48.750;9.078;2022-09-09T00:10:14;11.10;99.90
2300;DHT22;1158;48.750;9.078;2022-09-09T00:12:50;11.10;99.90
2300;DHT22;1158;48.750;9.078;2022-09-09T00:15:19;11.10;99.90
2300;DHT22;1158;48.750;9.078;2022-09-09T00:17:52;11.10;99.90
2300;DHT22;1158;48.750;9.078;2022-09-09T00:20:28;11.20;99.90
2300;DHT22;1158;48.750;9.078;2022-09-09T00:23:00;11.20;99.90
2300;DHT22;1158;48.750;9.078;2022-09-09T00:25:36;11.30;99.90
2300;DHT22;1158;48.750;9.078;2022-09-09T00:28:18;11.40;99.90
2300;DHT22;1158;48.750;9.078;2022-09-09T00:30:45;11.50;99.90
2300;DHT22;1158;48.750;9.078;2022-09-09T00:33:15;11.60;99.90
2300;DHT22;1158;48.750;9.078;2022-09-09T00:35:48;11.60;99.90
2300;DHT22;1158;48.750;9.078;2022-09-09T00:38:18;11.70;99.90
2300;DHT22;1158;48.750;9.078;2022-09-09T00:40:49;11.70;99.90
2300;DHT22;1158;48.750;9.078;2022-09-09T00:43:28;11.80;99.90
2300;DHT22;1158;48.750;9.078;2022-09-09T00:46:32;11.90;99.90
2300;DHT22;1158;48.750;9.078;2022-09-09T00:49:08;11.90;99.90
2300;DHT22;1158;48.750;9.078;2022-09-09T00:51:46;12.00;99.90
2300;DHT22;1158;48.750;9.078;2022-09-09T00:54:26;12.10;99.90
2300;DHT22;1158;48.750;9.078;2022-09-09T00:57:02;12.10;99.90
2300;DHT22;1158;48.750;9.078;2022-09-09T00:59:43;12.10;99.90
2300;DHT22;1158;48.750;9.078;2022-09-09T01:02:20;12.20;99.90
2300;DHT22;1158;48.750;9.078;2022-09-09T01:04:49;12.20;99.90
2300;DHT22;1158;48.750;9.078;2022-09-09T01:07:18;12.20;99.90
2300;DHT22;1158;48.750;9.078;2022-09-09T01:09:54;12.30;99.90
2300;DHT22;1158;48.750;9.078;2022-09-09T01:12:38;12.30;99.90
2300;DHT22;1158;48.750;9.078;2022-09-09T01:15:11;12.30;99.90
2300;DHT22;1158;48.750;9.078;2022-09-09T01:17:48;12.30;99.90
2300;DHT22;1158;48.750;9.078;2022-09-09T01:20:19;12.30;99.90
2300;DHT22;1158;48.750;9.078;2022-09-09T01:23:19;12.30;99.90
2300;DHT22;1158;48.750;9.078;2022-09-09T01:26:22;12.30;99.90
2300;DHT22;1158;48.750;9.078;2022-09-09T01:28:52;12.20;99.90
2300;DHT22;1158;48.750;9.078;2022-09-09T01:31:22;12.20;99.90
2300;DHT22;1158;48.750;9.078;2022-09-09T01:33:49;12.10;99.90
2300;DHT22;1158;48.750;9.078;2022-09-09T01:36:21;12.20;99.90
2300;DHT22;1158;48.750;9.078;2022-09-09T01:38:50;12.30;99.90
2300;DHT22;1158;48.750;9.078;2022-09-09T01:41:17;12.30;99.90
2300;DHT22;1158;48.750;9.078;2022-09-09T01:43:45;12.50;99.90
2300;DHT22;1158;48.750;9.078;2022-09-09T01:46:12;12.60;99.90
2300;DHT22;1158;48.750;9.078;2022-09-09T01:48:40;12.50;99.90
2300;DHT22;1158;48.750;9.078;2022-09-09T01:51:08;12.50;99.90
2300;DHT22;1158;48.750;9.078;2022-09-09T01:53:36;12.40;99.90
2300;DHT22;1158;48.750;9.078;2022-09-09T01:56:12;12.30;99.90
2300;DHT22;1158;48.750;9.078;2022-09-09T01:58:53;12.40;99.90
2300;DHT22;1158;48.750;9.078;2022-09-09T02:01:30;12.30;99.90
2300;DHT22;1158;48.750;9.078;2022-09-09T02:04:03;12.40;99.90
2300;DHT22;1158;48.750;9.078;2022-09-09T02:06:33;12.40;99.90
2300;DHT22;1158;48.750;9.078;2022-09-09T02:09:04;12.30;99.90
2300;DHT22;1158;48.750;9.078;2022-09-09T02:11:31;12.20;99.90
2300;DHT22;1158;48.750;9.078;2022-09-09T02:14:04;12.00;99.90
2300;DHT22;1158;48.750;9.078;2022-09-09T02:16:37;12.00;99.90
2300;DHT22;1158;48.750;9.078;2022-09-09T02:19:08;11.90;99.90
2300;DHT22;1158;48.750;9.078;2022-09-09T02:21:39;11.90;99.90
2300;DHT22;1158;48.750;9.078;2022-09-09T02:24:08;11.90;99.90
2300;DHT22;1158;48.750;9.078;2022-09-09T02:26:38;12.00;99.90
2300;DHT22;1158;48.750;9.078;2022-09-09T02:29:11;12.00;99.90
2300;DHT22;1158;48.750;9.078;2022-09-09T02:31:41;11.90;99.90
2300;DHT22;1158;48.750;9.078;2022-09-09T02:34:09;11.90;99.90
2300;DHT22;1158;48.750;9.078;2022-09-09T02:36:38;11.90;99.90
2300;DHT22;1158;48.750;9.078;2022-09-09T02:39:08;11.90;99.90
2300;DHT22;1158;48.750;9.078;2022-09-09T02:41:38;11.90;99.90
2300;DHT22;1158;48.750;9.078;2022-09-09T02:44:09;11.80;99.90
2300;DHT22;1158;48.750;9.078;2022-09-09T02:47:04;11.90;99.90
2300;DHT22;1158;48.750;9.078;2022-09-09T02:49:42;12.10;99.90
2300;DHT22;1158;48.750;9.078;2022-09-09T02:52:14;12.00;99.90
2300;DHT22;1158;48.750;9.078;2022-09-09T02:54:42;12.00;99.90
2300;DHT22;1158;48.750;9.078;2022-09-09T02:57:11;12.00;99.90
2300;DHT22;1158;48.750;9.078;2022-09-09T02:59:40;12.00;99.90
2300;DHT22;1158;48.750;9.078;2022-09-09T03:02:07;11.90;99.90
2300;DHT22;1158;48.750;9.078;2022-09-09T03:04:36;11.90;99.90
2300;DHT22;1158;48.750;9.078;2022-09-09T03:07:03;11.90;99.90
2300;DHT22;1158;48.750;9.078;2022-09-09T03:09:30;12.00;99.90
2300;DHT22;1158;48.750;9.078;2022-09-09T03:11:58;12.00;99.90
2300;DHT22;1158;48.750;9.078;2022-09-09T03:14:24;12.00;99.90
2300;DHT22;1158;48.750;9.078;2022-09-09T03:16:53;12.00;99.90
2300;DHT22;1158;48.750;9.078;2022-09-09T03:19:21;12.10;99.90
2300;DHT22;1158;48.750;9.078;2022-09-09T03:21:48;12.10;99.90
2300;DHT22;1158;48.750;9.078;2022-09-09T03:24:15;12.10;99.90
2300;DHT22;1158;48.750;9.078;2022-09-09T03:26:42;12.20;99.90
2300;DHT22;1158;48.750;9.078;2022-09-09T03:29:10;12.20;99.90
2300;DHT22;1158;48.750;9.078;2022-09-09T03:31:38;12.30;99.90
2300;DHT22;1158;48.750;9.078;2022-09-09T03:34:06;12.50;99.90
2300;DHT22;1158;48.750;9.078;2022-09-09T03:36:33;12.70;99.90
2300;DHT22;1158;48.750;9.078;2022-09-09T03:38:59;12.80;99.90
2300;DHT22;1158;48.750;9.078;2022-09-09T03:41:28;13.00;99.90
2300;DHT22;1158;48.750;9.078;2022-09-09T03:43:55;13.00;99.90
2300;DHT22;1158;48.750;9.078;2022-09-09T03:46:23;13.00;99.90
2300;DHT22;1158;48.750;9.078;2022-09-09T03:48:51;12.90;99.90
2300;DHT22;1158;48.750;9.078;2022-09-09T03:51:20;12.80;99.90
2300;DHT22;1158;48.750;9.078;2022-09-09T03:53:47;12.80;99.90
2300;DHT22;1158;48.750;9.078;2022-09-09T03:56:14;12.80;99.90
2300;DHT22;1158;48.750;9.078;2022-09-09T03:58:41;12.80;99.90
2300;DHT22;1158;48.750;9.078;2022-09-09T04:01:09;12.80;99.90
2300;DHT22;1158;48.750;9.078;2022-09-09T04:03:38;12.70;99.90
2300;DHT22;1158;48.750;9.078;2022-09-09T04:06:07;12.70;99.90
2300;DHT22;1158;48.750;9.078;2022-09-09T04:08:36;12.70;99.90
2300;DHT22;1158;48.750;9.078;2022-09-09T04:11:04;12.80;99.90
2300;DHT22;1158;48.750;9.078;2022-09-09T04:13:31;12.90;99.90
2300;DHT22;1158;48.750;9.078;2022-09-09T04:16:00;12.80;99.90
2300;DHT22;1158;48.750;9.078;2022-09-09T04:18:27;12.90;99.90
2300;DHT22;1158;48.750;9.078;2022-09-09T04:20:54;13.00;99.90
2300;DHT22;1158;48.750;9.078;2022-09-09T04:23:23;13.20;99.90
2300;DHT22;1158;48.750;9.078;2022-09-09T04:25:52;13.30;99.90
2300;DHT22;1158;48.750;9.078;2022-09-09T04:28:20;13.40;99.90
2300;DHT22;1158;48.750;9.078;2022-09-09T04:30:47;13.60;99.90
2300;DHT22;1158;48.750;9.078;2022-09-09T04:33:14;13.60;99.90
2300;DHT22;1158;48.750;9.078;2022-09-09T04:35:45;13.60;99.90
2300;DHT22;1158;48.750;9.078;2022-09-09T04:38:12;13.70;99.90
2300;DHT22;1158;48.750;9.078;2022-09-09T04:40:41;13.70;99.90
2300;DHT22;1158;48.750;9.078;2022-09-09T04:43:10;13.70;99.90
2300;DHT22;1158;48.750;9.078;2022-09-09T04:45:36;13.70;99.90
2300;DHT22;1158;48.750;9.078;2022-09-09T04:48:05;13.60;99.90
2300;DHT22;1158;48.750;9.078;2022-09-09T04:50:32;13.50;99.90
2300;DHT22;1158;48.750;9.078;2022-09-09T04:53:00;13.50;99.90
2300;DHT22;1158;48.750;9.078;2022-09-09T04:55:27;13.40;99.90
2300;DHT22;1158;48.750;9.078;2022-09-09T04:57:54;13.30;99.90
2300;DHT22;1158;48.750;9.078;2022-09-09T05:00:22;13.30;99.90
2300;DHT22;1158;48.750;9.078;2022-09-09T05:02:48;13.30;99.90
2300;DHT22;1158;48.750;9.078;2022-09-09T05:05:16;13.30;99.90
2300;DHT22;1158;48.750;9.078;2022-09-09T05:07:44;13.40;99.90
2300;DHT22;1158;48.750;9.078;2022-09-09T05:10:11;13.50;99.90
2300;DHT22;1158;48.750;9.078;2022-09-09T05:12:38;13.50;99.90
2300;DHT22;1158;48.750;9.078;2022-09-09T05:15:06;13.50;99.90
2300;DHT22;1158;48.750;9.078;2022-09-09T05:17:34;13.60;99.90
2300;DHT22;1158;48.750;9.078;2022-09-09T05:20:01;13.70;99.90
2300;DHT22;1158;48.750;9.078;2022-09-09T05:22:29;13.80;99.90
2300;DHT22;1158;48.750;9.078;2022-09-09T05:24:56;13.90;99.90
2300;DHT22;1158;48.750;9.078;2022-09-09T05:27:23;14.00;99.90
2300;DHT22;1158;48.750;9.078;2022-09-09T05:29:50;14.10;99.90
2300;DHT22;1158;48.750;9.078;2022-09-09T05:32:17;14.20;99.90
2300;DHT22;1158;48.750;9.078;2022-09-09T05:34:45;14.40;99.90
2300;DHT22;1158;48.750;9.078;2022-09-09T05:37:12;14.40;99.90
2300;DHT22;1158;48.750;9.078;2022-09-09T05:39:38;14.40;99.90
2300;DHT22;1158;48.750;9.078;2022-09-09T05:42:06;14.40;99.90
2300;DHT22;1158;48.750;9.078;2022-09-09T05:44:32;14.40;99.90
2300;DHT22;1158;48.750;9.078;2022-09-09T05:46:59;14.40;99.90
2300;DHT22;1158;48.750;9.078;2022-09-09T05:49:25;14.50;99.90
2300;DHT22;1158;48.750;9.078;2022-09-09T05:51:54;14.50;99.90
2300;DHT22;1158;48.750;9.078;2022-09-09T05:54:20;14.50;99.90
2300;DHT22;1158;48.750;9.078;2022-09-09T05:56:47;14.50;99.90
2300;DHT22;1158;48.750;9.078;2022-09-09T05:59:15;14.60;99.90
2300;DHT22;1158;48.750;9.078;2022-09-09T06:01:41;14.60;99.90
2300;DHT22;1158;48.750;9.078;2022-09-09T06:04:08;14.70;99.90
2300;DHT22;1158;48.750;9.078;2022-09-09T06:06:36;14.70;99.90
2300;DHT22;1158;48.750;9.078;2022-09-09T06:09:07;14.80;99.90
2300;DHT22;1158;48.750;9.078;2022-09-09T06:11:36;14.80;99.90
2300;DHT22;1158;48.750;9.078;2022-09-09T06:14:04;14.80;99.90
2300;DHT22;1158;48.750;9.078;2022-09-09T06:16:31;14.90;99.90
2300;DHT22;1158;48.750;9.078;2022-09-09T06:18:59;15.00;99.90
2300;DHT22;1158;48.750;9.078;2022-09-09T06:21:27;15.00;99.90
2300;DHT22;1158;48.750;9.078;2022-09-09T06:23:54;15.00;99.90
2300;DHT22;1158;48.750;9.078;2022-09-09T06:26:23;15.00;99.90
2300;DHT22;1158;48.750;9.078;2022-09-09T06:28:53;15.10;99.90
2300;DHT22;1158;48.750;9.078;2022-09-09T06:31:22;15.10;99.90
2300;DHT22;1158;48.750;9.078;2022-09-09T06:33:50;15.20;99.90
2300;DHT22;1158;48.750;9.078;2022-09-09T06:36:18;15.20;99.90
2300;DHT22;1158;48.750;9.078;2022-09-09T06:38:46;15.30;99.90
2300;DHT22;1158;48.750;9.078;2022-09-09T06:41:14;15.40;99.90
2300;DHT22;1158;48.750;9.078;2022-09-09T06:43:42;15.50;99.90
2300;DHT22;1158;48.750;9.078;2022-09-09T06:46:11;15.60;99.90
2300;DHT22;1158;48.750;9.078;2022-09-09T06:48:39;15.70;99.90
2300;DHT22;1158;48.750;9.078;2022-09-09T06:51:08;15.80;99.90
2300;DHT22;1158;48.750;9.078;2022-09-09T06:53:36;16.00;99.90
2300;DHT22;1158;48.750;9.078;2022-09-09T06:56:18;16.00;99.90
2300;DHT22;1158;48.750;9.078;2022-09-09T06:58:47;16.10;99.90
2300;DHT22;1158;48.750;9.078;2022-09-09T07:01:16;16.30;99.90
2300;DHT22;1158;48.750;9.078;2022-09-09T07:03:46;16.40;99.90
2300;DHT22;1158;48.750;9.078;2022-09-09T07:06:15;16.40;99.90
2300;DHT22;1158;48.750;9.078;2022-09-09T07:08:43;16.50;99.90
2300;DHT22;1158;48.750;9.078;2022-09-09T07:11:10;16.50;99.90
2300;DHT22;1158;48.750;9.078;2022-09-09T07:13:37;16.60;99.90
2300;DHT22;1158;48.750;9.078;2022-09-09T07:16:06;16.60;99.90
2300;DHT22;1158;48.750;9.078;2022-09-09T07:18:33;16.70;99.90
2300;DHT22;1158;48.750;9.078;2022-09-09T07:21:01;16.70;99.90
2300;DHT22;1158;48.750;9.078;2022-09-09T07:23:29;17.00;99.90
2300;DHT22;1158;48.750;9.078;2022-09-09T07:25:56;17.20;99.90
2300;DHT22;1158;48.750;9.078;2022-09-09T07:28:24;17.10;99.90
2300;DHT22;1158;48.750;9.078;2022-09-09T07:30:55;17.30;99.90
2300;DHT22;1158;48.750;9.078;2022-09-09T07:33:23;18.10;99.90
2300;DHT22;1158;48.750;9.078;2022-09-09T07:35:50;19.50;99.90
2300;DHT22;1158;48.750;9.078;2022-09-09T07:38:17;20.80;99.90
2300;DHT22;1158;48.750;9.078;2022-09-09T07:40:45;21.10;99.90
2300;DHT22;1158;48.750;9.078;2022-09-09T07:43:12;20.80;99.90
2300;DHT22;1158;48.750;9.078;2022-09-09T07:45:39;20.20;99.90
2300;DHT22;1158;48.750;9.078;2022-09-09T07:48:08;19.80;99.90
2300;DHT22;1158;48.750;9.078;2022-09-09T07:50:36;20.00;99.90
2300;DHT22;1158;48.750;9.078;2022-09-09T07:53:03;20.80;99.90
2300;DHT22;1158;48.750;9.078;2022-09-09T07:55:31;22.00;99.90
2300;DHT22;1158;48.750;9.078;2022-09-09T07:57:58;23.20;99.90
2300;DHT22;1158;48.750;9.078;2022-09-09T08:00:24;24.30;99.90
2300;DHT22;1158;48.750;9.078;2022-09-09T08:02:52;24.20;99.90
2300;DHT22;1158;48.750;9.078;2022-09-09T08:05:19;23.50;99.90
2300;DHT22;1158;48.750;9.078;2022-09-09T08:07:49;24.80;99.90
2300;DHT22;1158;48.750;9.078;2022-09-09T08:10:15;24.70;99.90
2300;DHT22;1158;48.750;9.078;2022-09-09T08:12:43;24.40;99.90
2300;DHT22;1158;48.750;9.078;2022-09-09T08:15:10;25.00;99.90
2300;DHT22;1158;48.750;9.078;2022-09-09T08:17:37;25.70;99.90
2300;DHT22;1158;48.750;9.078;2022-09-09T08:20:05;25.50;99.90
2300;DHT22;1158;48.750;9.078;2022-09-09T08:22:32;25.90;99.90
2300;DHT22;1158;48.750;9.078;2022-09-09T08:25:01;25.60;99.90
2300;DHT22;1158;48.750;9.078;2022-09-09T08:27:27;26.40;99.90
2300;DHT22;1158;48.750;9.078;2022-09-09T08:29:54;25.70;99.90
2300;DHT22;1158;48.750;9.078;2022-09-09T08:32:21;25.40;99.90
2300;DHT22;1158;48.750;9.078;2022-09-09T08:34:48;25.00;99.90
2300;DHT22;1158;48.750;9.078;2022-09-09T08:37:15;24.20;99.90
2300;DHT22;1158;48.750;9.078;2022-09-09T08:39:41;23.90;99.90
2300;DHT22;1158;48.750;9.078;2022-09-09T08:45:09;24.40;99.90
2300;DHT22;1158;48.750;9.078;2022-09-09T08:47:45;24.90;99.90
2300;DHT22;1158;48.750;9.078;2022-09-09T08:50:21;25.20;99.90
2300;DHT22;1158;48.750;9.078;2022-09-09T08:52:55;25.40;99.90
2300;DHT22;1158;48.750;9.078;2022-09-09T08:55:28;26.00;99.90
2300;DHT22;1158;48.750;9.078;2022-09-09T08:57:59;25.80;99.90
2300;DHT22;1158;48.750;9.078;2022-09-09T09:00:33;25.10;99.90
2300;DHT22;1158;48.750;9.078;2022-09-09T09:03:08;25.50;99.90
2300;DHT22;1158;48.750;9.078;2022-09-09T09:05:44;23.60;99.90
2300;DHT22;1158;48.750;9.078;2022-09-09T09:08:20;22.10;99.90
2300;DHT22;1158;48.750;9.078;2022-09-09T09:10:49;21.10;99.90
2300;DHT22;1158;48.750;9.078;2022-09-09T09:13:19;20.50;99.90
2300;DHT22;1158;48.750;9.078;2022-09-09T09:15:52;19.80;99.90
2300;DHT22;1158;48.750;9.078;2022-09-09T09:18:22;18.90;99.90
2300;DHT22;1158;48.750;9.078;2022-09-09T09:21:00;18.00;99.90
2300;DHT22;1158;48.750;9.078;2022-09-09T09:23:39;17.60;99.90
2300;DHT22;1158;48.750;9.078;2022-09-09T09:26:09;17.20;99.90
2300;DHT22;1158;48.750;9.078;2022-09-09T09:28:39;17.00;99.90
2300;DHT22;1158;48.750;9.078;2022-09-09T09:31:09;16.90;99.90
2300;DHT22;1158;48.750;9.078;2022-09-09T09:33:43;17.00;99.90
2300;DHT22;1158;48.750;9.078;2022-09-09T09:36:12;17.80;99.90
2300;DHT22;1158;48.750;9.078;2022-09-09T09:38:51;18.80;99.90
2300;DHT22;1158;48.750;9.078;2022-09-09T09:41:29;20.80;99.90
2300;DHT22;1158;48.750;9.078;2022-09-09T09:43:58;22.20;99.90
2300;DHT22;1158;48.750;9.078;2022-09-09T09:46:26;23.00;99.90
2300;DHT22;1158;48.750;9.078;2022-09-09T09:48:57;22.90;99.90
2300;DHT22;1158;48.750;9.078;2022-09-09T09:51:25;23.10;99.90
2300;DHT22;1158;48.750;9.078;2022-09-09T09:53:53;24.10;99.90
2300;DHT22;1158;48.750;9.078;2022-09-09T09:56:27;25.00;99.90
2300;DHT22;1158;48.750;9.078;2022-09-09T09:58:54;25.50;99.90
2300;DHT22;1158;48.750;9.078;2022-09-09T10:01:24;25.40;99.90
2300;DHT22;1158;48.750;9.078;2022-09-09T10:03:53;24.70;99.90
2300;DHT22;1158;48.750;9.078;2022-09-09T10:06:30;24.60;99.90
2300;DHT22;1158;48.750;9.078;2022-09-09T10:08:57;24.30;99.90
2300;DHT22;1158;48.750;9.078;2022-09-09T10:11:38;25.10;99.90
2300;DHT22;1158;48.750;9.078;2022-09-09T10:14:15;25.80;99.90
2300;DHT22;1158;48.750;9.078;2022-09-09T10:16:55;26.00;99.90
2300;DHT22;1158;48.750;9.078;2022-09-09T10:19:30;26.00;99.90
2300;DHT22;1158;48.750;9.078;2022-09-09T10:22:04;25.40;99.90
2300;DHT22;1158;48.750;9.078;2022-09-09T10:24:51;24.60;99.90
2300;DHT22;1158;48.750;9.078;2022-09-09T10:27:29;24.80;99.90
2300;DHT22;1158;48.750;9.078;2022-09-09T10:30:04;24.90;99.90
2300;DHT22;1158;48.750;9.078;2022-09-09T10:32:40;24.80;99.90
2300;DHT22;1158;48.750;9.078;2022-09-09T10:35:14;24.80;99.90
2300;DHT22;1158;48.750;9.078;2022-09-09T10:38:01;25.20;99.90
2300;DHT22;1158;48.750;9.078;2022-09-09T10:40:33;25.20;99.90
2300;DHT22;1158;48.750;9.078;2022-09-09T10:43:08;25.50;99.90
2300;DHT22;1158;48.750;9.078;2022-09-09T10:45:47;25.60;99.90
2300;DHT22;1158;48.750;9.078;2022-09-09T10:48:30;25.10;99.90
2300;DHT22;1158;48.750;9.078;2022-09-09T10:51:06;24.60;99.90
2300;DHT22;1158;48.750;9.078;2022-09-09T10:53:46;25.50;99.90
2300;DHT22;1158;48.750;9.078;2022-09-09T10:56:16;26.20;99.90
2300;DHT22;1158;48.750;9.078;2022-09-09T10:58:48;25.90;99.90
2300;DHT22;1158;48.750;9.078;2022-09-09T11:01:20;25.10;99.30
2300;DHT22;1158;48.750;9.078;2022-09-09T11:03:54;24.40;99.90
2300;DHT22;1158;48.750;9.078;2022-09-09T11:06:28;24.70;99.90
2300;DHT22;1158;48.750;9.078;2022-09-09T11:08:57;24.40;99.50
2300;DHT22;1158;48.750;9.078;2022-09-09T11:11:30;23.50;99.90
2300;DHT22;1158;48.750;9.078;2022-09-09T11:14:03;23.00;99.90
2300;DHT22;1158;48.750;9.078;2022-09-09T11:16:35;22.40;99.90
2300;DHT22;1158;48.750;9.078;2022-09-09T11:19:13;22.00;99.90
2300;DHT22;1158;48.750;9.078;2022-09-09T11:21:45;21.70;99.90
2300;DHT22;1158;48.750;9.078;2022-09-09T11:24:18;21.10;99.90
2300;DHT22;1158;48.750;9.078;2022-09-09T11:26:51;20.40;99.90
2300;DHT22;1158;48.750;9.078;2022-09-09T11:29:50;20.50;99.90
2300;DHT22;1158;48.750;9.078;2022-09-09T11:32:42;20.00;99.90
2300;DHT22;1158;48.750;9.078;2022-09-09T11:35:26;19.40;99.90
2300;DHT22;1158;48.750;9.078;2022-09-09T11:38:21;19.40;99.90
2300;DHT22;1158;48.750;9.078;2022-09-09T11:40:55;19.20;99.90
2300;DHT22;1158;48.750;9.078;2022-09-09T11:43:28;19.10;99.90
2300;DHT22;1158;48.750;9.078;2022-09-09T11:45:59;19.20;99.90
2300;DHT22;1158;48.750;9.078;2022-09-09T11:48:32;19.50;99.90
2300;DHT22;1158;48.750;9.078;2022-09-09T11:51:03;19.60;99.90
2300;DHT22;1158;48.750;9.078;2022-09-09T11:53:34;19.60;99.90
2300;DHT22;1158;48.750;9.078;2022-09-09T11:56:09;19.40;99.90
2300;DHT22;1158;48.750;9.078;2022-09-09T11:58:43;19.60;99.90
2300;DHT22;1158;48.750;9.078;2022-09-09T12:01:24;20.00;99.90
2300;DHT22;1158;48.750;9.078;2022-09-09T12:04:00;20.30;99.90
2300;DHT22;1158;48.750;9.078;2022-09-09T12:06:41;20.70;99.90
2300;DHT22;1158;48.750;9.078;2022-09-09T12:09:22;22.20;99.90
2300;DHT22;1158;48.750;9.078;2022-09-09T12:11:50;23.10;99.90
2300;DHT22;1158;48.750;9.078;2022-09-09T12:14:21;23.10;99.90
2300;DHT22;1158;48.750;9.078;2022-09-09T12:16:48;23.30;99.90
2300;DHT22;1158;48.750;9.078;2022-09-09T12:19:19;24.10;99.90
2300;DHT22;1158;48.750;9.078;2022-09-09T12:21:54;24.00;99.90
2300;DHT22;1158;48.750;9.078;2022-09-09T12:24:32;23.70;99.90
2300;DHT22;1158;48.750;9.078;2022-09-09T12:27:07;23.50;99.90
2300;DHT22;1158;48.750;9.078;2022-09-09T12:29:43;23.50;99.90
2300;DHT22;1158;48.750;9.078;2022-09-09T12:32:12;23.70;99.80
2300;DHT22;1158;48.750;9.078;2022-09-09T12:34:44;23.90;99.50
2300;DHT22;1158;48.750;9.078;2022-09-09T12:37:21;23.20;99.90
2300;DHT22;1158;48.750;9.078;2022-09-09T12:39:54;22.90;99.90
2300;DHT22;1158;48.750;9.078;2022-09-09T12:42:22;22.30;99.90
2300;DHT22;1158;48.750;9.078;2022-09-09T12:44:57;22.00;99.90
2300;DHT22;1158;48.750;9.078;2022-09-09T12:47:34;22.20;99.90
2300;DHT22;1158;48.750;9.078;2022-09-09T12:50:03;23.20;99.90
2300;DHT22;1158;48.750;9.078;2022-09-09T12:52:34;23.60;99.90
2300;DHT22;1158;48.750;9.078;2022-09-09T12:55:05;23.50;99.90
2300;DHT22;1158;48.750;9.078;2022-09-09T12:57:36;23.50;99.90
2300;DHT22;1158;48.750;9.078;2022-09-09T13:00:07;24.10;99.90
2300;DHT22;1158;48.750;9.078;2022-09-09T13:02:36;24.90;99.90
2300;DHT22;1158;48.750;9.078;2022-09-09T13:05:15;25.00;99.80
2300;DHT22;1158;48.750;9.078;2022-09-09T13:07:44;25.30;99.90
2300;DHT22;1158;48.750;9.078;2022-09-09T13:10:12;25.80;98.80
2300;DHT22;1158;48.750;9.078;2022-09-09T13:12:39;25.40;98.40
2300;DHT22;1158;48.750;9.078;2022-09-09T13:15:14;24.20;99.70
2300;DHT22;1158;48.750;9.078;2022-09-09T13:17:50;23.20;99.90
2300;DHT22;1158;48.750;9.078;2022-09-09T13:20:19;22.70;99.90
2300;DHT22;1158;48.750;9.078;2022-09-09T13:22:49;23.40;99.90
2300;DHT22;1158;48.750;9.078;2022-09-09T13:25:20;24.90;99.90
2300;DHT22;1158;48.750;9.078;2022-09-09T13:27:55;26.00;98.10
2300;DHT22;1158;48.750;9.078;2022-09-09T13:30:23;26.20;97.60
2300;DHT22;1158;48.750;9.078;2022-09-09T13:33:01;26.30;95.00
2300;DHT22;1158;48.750;9.078;2022-09-09T13:35:28;26.10;95.00
2300;DHT22;1158;48.750;9.078;2022-09-09T13:37:57;25.20;95.80
2300;DHT22;1158;48.750;9.078;2022-09-09T13:40:25;24.10;96.00
2300;DHT22;1158;48.750;9.078;2022-09-09T13:42:55;23.20;96.50
2300;DHT22;1158;48.750;9.078;2022-09-09T13:45:25;22.90;97.20
2300;DHT22;1158;48.750;9.078;2022-09-09T13:47:53;22.80;97.70
2300;DHT22;1158;48.750;9.078;2022-09-09T13:50:22;22.70;97.30
2300;DHT22;1158;48.750;9.078;2022-09-09T13:52:49;22.80;97.60
2300;DHT22;1158;48.750;9.078;2022-09-09T13:55:18;23.80;97.30
2300;DHT22;1158;48.750;9.078;2022-09-09T13:57:51;24.40;95.70
2300;DHT22;1158;48.750;9.078;2022-09-09T14:00:18;25.20;95.90
2300;DHT22;1158;48.750;9.078;2022-09-09T14:02:46;25.90;94.30
2300;DHT22;1158;48.750;9.078;2022-09-09T14:05:13;26.70;93.50
2300;DHT22;1158;48.750;9.078;2022-09-09T14:07:40;27.00;93.30
2300;DHT22;1158;48.750;9.078;2022-09-09T14:10:08;27.40;92.80
2300;DHT22;1158;48.750;9.078;2022-09-09T14:12:36;27.60;92.30
2300;DHT22;1158;48.750;9.078;2022-09-09T14:15:04;28.30;91.70
2300;DHT22;1158;48.750;9.078;2022-09-09T14:17:31;28.60;92.00
2300;DHT22;1158;48.750;9.078;2022-09-09T14:19:58;27.10;91.30
2300;DHT22;1158;48.750;9.078;2022-09-09T14:22:25;25.40;92.40
2300;DHT22;1158;48.750;9.078;2022-09-09T14:24:53;24.10;93.70
2300;DHT22;1158;48.750;9.078;2022-09-09T14:27:20;22.90;94.20
2300;DHT22;1158;48.750;9.078;2022-09-09T14:29:48;23.50;94.60
2300;DHT22;1158;48.750;9.078;2022-09-09T14:32:15;24.30;93.80
2300;DHT22;1158;48.750;9.078;2022-09-09T14:34:41;23.70;93.90
2300;DHT22;1158;48.750;9.078;2022-09-09T14:37:08;23.70;94.30
2300;DHT22;1158;48.750;9.078;2022-09-09T14:39:35;24.80;93.90
2300;DHT22;1158;48.750;9.078;2022-09-09T14:42:01;25.10;93.30
2300;DHT22;1158;48.750;9.078;2022-09-09T14:44:28;24.40;93.20
2300;DHT22;1158;48.750;9.078;2022-09-09T14:46:56;25.00;92.20
2300;DHT22;1158;48.750;9.078;2022-09-09T14:49:24;24.90;92.20
2300;DHT22;1158;48.750;9.078;2022-09-09T14:51:50;24.40;92.50
2300;DHT22;1158;48.750;9.078;2022-09-09T14:54:17;23.20;93.10
2300;DHT22;1158;48.750;9.078;2022-09-09T14:56:44;23.80;92.80
2300;DHT22;1158;48.750;9.078;2022-09-09T14:59:10;23.10;93.10
2300;DHT22;1158;48.750;9.078;2022-09-09T15:01:38;22.50;93.90
2300;DHT22;1158;48.750;9.078;2022-09-09T15:04:06;22.00;94.80
2300;DHT22;1158;48.750;9.078;2022-09-09T15:06:35;22.50;94.50
2300;DHT22;1158;48.750;9.078;2022-09-09T15:09:04;22.40;94.40
2300;DHT22;1158;48.750;9.078;2022-09-09T15:11:34;22.10;95.00
2300;DHT22;1158;48.750;9.078;2022-09-09T15:14:03;21.70;95.00
2300;DHT22;1158;48.750;9.078;2022-09-09T15:16:30;21.50;95.50
2300;DHT22;1158;48.750;9.078;2022-09-09T15:18:58;21.30;95.60
2300;DHT22;1158;48.750;9.078;2022-09-09T15:21:28;21.10;95.90
2300;DHT22;1158;48.750;9.078;2022-09-09T15:23:56;21.10;96.20
2300;DHT22;1158;48.750;9.078;2022-09-09T15:26:23;21.70;96.10
2300;DHT22;1158;48.750;9.078;2022-09-09T15:28:50;23.20;95.20
2300;DHT22;1158;48.750;9.078;2022-09-09T15:31:18;23.90;94.30
2300;DHT22;1158;48.750;9.078;2022-09-09T15:33:49;24.10;93.90
2300;DHT22;1158;48.750;9.078;2022-09-09T15:36:19;24.50;93.80
2300;DHT22;1158;48.750;9.078;2022-09-09T15:38:48;24.00;93.90
2300;DHT22;1158;48.750;9.078;2022-09-09T15:41:16;23.20;94.10
2300;DHT22;1158;48.750;9.078;2022-09-09T15:43:44;22.20;94.90
2300;DHT22;1158;48.750;9.078;2022-09-09T15:46:24;21.50;96.10
2300;DHT22;1158;48.750;9.078;2022-09-09T15:48:51;21.10;96.60
2300;DHT22;1158;48.750;9.078;2022-09-09T15:51:18;20.70;97.30
2300;DHT22;1158;48.750;9.078;2022-09-09T15:53:46;20.60;97.40
2300;DHT22;1158;48.750;9.078;2022-09-09T15:56:13;20.40;97.60
2300;DHT22;1158;48.750;9.078;2022-09-09T15:58:40;20.30;97.90
2300;DHT22;1158;48.750;9.078;2022-09-09T16:01:09;20.20;97.50
2300;DHT22;1158;48.750;9.078;2022-09-09T16:03:38;20.10;97.70
2300;DHT22;1158;48.750;9.078;2022-09-09T16:06:06;20.00;97.70
2300;DHT22;1158;48.750;9.078;2022-09-09T16:08:33;20.00;97.50
2300;DHT22;1158;48.750;9.078;2022-09-09T16:11:06;19.90;97.50
2300;DHT22;1158;48.750;9.078;2022-09-09T16:13:35;19.80;97.50
2300;DHT22;1158;48.750;9.078;2022-09-09T16:16:02;19.70;97.80
2300;DHT22;1158;48.750;9.078;2022-09-09T16:18:34;19.60;98.10
2300;DHT22;1158;48.750;9.078;2022-09-09T16:21:01;19.60;98.30
2300;DHT22;1158;48.750;9.078;2022-09-09T16:23:28;19.50;98.50
2300;DHT22;1158;48.750;9.078;2022-09-09T16:25:55;19.50;98.80
2300;DHT22;1158;48.750;9.078;2022-09-09T16:28:24;19.40;98.90